Time;durP1;ratioP1;P1;durP2;ratioP2;P2;SDS_P1;SDS_P2;PMS_P1;PMS_P2;Temp;Humidity;BMP_temperature;BMP_pressure;BME280_temperature;BME280_humidity;BME280_pressure;Samples;Min_cycle;Max_cycle;Signal;HPM_P1;HPM_P2
2022/12/05 00:02:30;;;;;;;;;;;;;;;;;;10408626;28;19931;-64
2022/12/05 00:07:32;;;;;;;;;;;;;;;;;;10403302;28;19933;-64
2022/12/05 00:12:34;;;;;;;;;;;;;;;;;;10420704;28;19931;-64
2022/12/05 00:17:36;;;;;;;;;;;;;;;;;;10403140;28;20380;-64
2022/12/05 00:22:38;;;;;;;;;;;;;;;;;;10379215;28;19925;-64
2022/12/05 00:27:40;;;;;;;;;;;;;;;;;;10378553;28;20377;-64
2022/12/05 00:32:42;;;;;;;;;;;;;;;;;;10412797;28;19979;-64
2022/12/05 00:37:44;;;;;;;;;;;;;;;;;;10419673;28;19932;-64
2022/12/05 00:42:46;;;;;;;;;;;;;;;;;;10419079;28;19951;-64
2022/12/05 00:47:53;;;;;;;;;;;;;;;;;;10413342;28;20015;-64
2022/12/05 00:52:55;;;;;;;;;;;;;;;;;;10378733;28;19925;-64
2022/12/05 00:57:57;;;;;;;;;;;;;;;;;;10392058;28;19929;-64
2022/12/05 01:02:59;;;;;;;;;;;;;;;;;;10418157;28;19976;-64
2022/12/05 01:08:01;;;;;;;;;;;;;;;;;;10417901;28;20012;-64
2022/12/05 01:13:03;;;;;;;;;;;;;;;;;;10399294;28;19949;-64
2022/12/05 01:18:05;;;;;;;;;;;;;;;;;;10376675;28;20266;-64
2022/12/05 01:23:07;;;;;;;;;;;;;;;;;;10377040;28;19925;-64
2022/12/05 01:28:09;;;;;;;;;;;;;;;;;;10376254;28;19937;-64
2022/12/05 01:33:11;;;;;;;;;;;;;;;;;;10376009;28;20349;-64
2022/12/05 01:38:13;;;;;;;;;;;;;;;;;;10389584;28;19979;-64
2022/12/05 01:43:16;;;;;;;;;;;;;;;;;;10416183;28;20360;-64
2022/12/05 01:48:18;;;;;;;;;;;;;;;;;;10416673;28;20043;-64
2022/12/05 01:53:20;;;;;;;;;;;;;;;;;;10416839;28;19924;-64
2022/12/05 01:58:22;;;;;;;;;;;;;;;;;;10386563;28;19925;-64
2022/12/05 02:03:24;;;;;;;;;;;;;;;;;;10375745;28;19926;-64
2022/12/05 02:08:26;;;;;;;;;;;;;;;;;;10390998;28;19929;-64
2022/12/05 02:13:28;;;;;;;;;;;;;;;;;;10374104;28;20434;-64
2022/12/05 02:18:30;;;;;;;;;;;;;;;;;;10376308;28;19933;-64
2022/12/05 02:23:32;;;;;;;;;;;;;;;;;;10374584;28;19926;-64
2022/12/05 02:28:34;;;;;;;;;;;;;;;;;;10374543;28;20369;-64
2022/12/05 02:33:36;;;;;;;;;;;;;;;;;;10375109;28;19925;-64
2022/12/05 02:38:39;;;;;;;;;;;;;;;;;;10404200;28;19925;-64
2022/12/05 02:43:41;;;;;;;;;;;;;;;;;;10415211;28;19929;-64
2022/12/05 02:48:43;;;;;;;;;;;;;;;;;;10414315;28;20414;-64
2022/12/05 02:53:45;;;;;;;;;;;;;;;;;;10415481;28;19925;-64
2022/12/05 02:58:47;;;;;;;;;;;;;;;;;;10402594;28;19932;-64
2022/12/05 03:03:49;;;;;;;;;;;;;;;;;;10388100;28;20387;-64
2022/12/05 03:08:51;;;;;;;;;;;;;;;;;;10415270;28;19951;-64
2022/12/05 03:13:53;;;;;;;;;;;;;;;;;;10415238;28;19932;-64
2022/12/05 03:18:55;;;;;;;;;;;;;;;;;;10396642;28;19949;-64
2022/12/05 03:23:57;;;;;;;;;;;;;;;;;;10374380;28;20066;-64
2022/12/05 03:28:59;;;;;;;;;;;;;;;;;;10380864;28;20304;-64
2022/12/05 03:34:02;;;;;;;;;;;;;;;;;;10401090;28;19925;-64
2022/12/05 03:39:04;;;;;;;;;;;;;;;;;;10400425;28;19925;-64
2022/12/05 03:44:06;;;;;;;;;;;;;;;;;;10380799;28;19925;-64
2022/12/05 03:49:08;;;;;;;;;;;;;;;;;;10395454;28;19930;-64
2022/12/05 03:54:10;;;;;;;;;;;;;;;;;;10403122;28;19995;-64
2022/12/05 03:59:12;;;;;;;;;;;;;;;;;;10402938;28;19925;-64
2022/12/05 04:04:14;;;;;;;;;;;;;;;;;;10402886;28;19925;-64
2022/12/05 04:09:16;;;;;;;;;;;;;;;;;;10420861;28;19925;-64
2022/12/05 04:14:18;;;;;;;;;;;;;;;;;;10419703;28;20333;-64
2022/12/05 04:19:20;;;;;;;;;;;;;;;;;;10420096;28;19987;-64
2022/12/05 04:29:43;;;;;;;;;;;;;;;;;;10379080;28;19925;-64
2022/12/05 04:34:45;;;;;;;;;;;;;;;;;;10378345;28;20399;-64
2022/12/05 04:39:47;;;;;;;;;;;;;;;;;;10377398;28;20404;-64
2022/12/05 04:44:49;;;;;;;;;;;;;;;;;;10416670;28;19929;-64
2022/12/05 04:49:51;;;;;;;;;;;;;;;;;;10418482;28;19926;-64
2022/12/05 04:54:54;;;;;;;;;;;;;;;;;;10418790;28;19925;-64
2022/12/05 04:59:56;;;;;;;;;;;;;;;;;;10417784;28;19925;-64
2022/12/05 05:04:59;;;;;;;;;;;;;;;;;;10377693;28;19930;-64
2022/12/05 05:10:01;;;;;;;;;;;;;;;;;;10377786;28;19980;-64
2022/12/05 05:15:03;;;;;;;;;;;;;;;;;;10352279;28;19925;-64
2022/12/05 05:20:23;;;;;;;;;;;;;;;;;;10343575;28;19925;-64
2022/12/05 05:25:25;;;;;;;;;;;;;;;;;;10409307;28;19926;-65
2022/12/05 05:30:28;;;;;;;;;;;;;;;;;;10376205;28;20332;-65
2022/12/05 05:35:30;;;;;;;;;;;;;;;;;;10375947;28;19929;-65
2022/12/05 05:40:32;;;;;;;;;;;;;;;;;;10386485;28;19929;-65
2022/12/05 05:45:34;;;;;;;;;;;;;;;;;;10417197;28;19925;-65
2022/12/05 05:50:36;;;;;;;;;;;;;;;;;;10415519;28;19975;-65
2022/12/05 05:55:38;;;;;;;;;;;;;;;;;;10407019;28;19972;-65
2022/12/05 06:00:40;;;;;;;;;;;;;;;;;;10387745;28;20388;-65
2022/12/05 06:05:42;;;;;;;;;;;;;;;;;;10416569;28;19939;-65
2022/12/05 06:10:47;;;;;;;;;;;;;;;;;;10415815;28;19925;-65
2022/12/05 06:15:49;;;;;;;;;;;;;;;;;;10413908;28;19932;-65
2022/12/05 06:20:51;;;;;;;;;;;;;;;;;;10399566;28;19933;-65
2022/12/05 06:25:53;;;;;;;;;;;;;;;;;;10374661;28;20327;-65
2022/12/05 06:30:55;;;;;;;;;;;;;;;;;;10375249;28;19925;-65
2022/12/05 06:35:57;;;;;;;;;;;;;;;;;;10375603;28;19929;-65
2022/12/05 06:40:59;;;;;;;;;;;;;;;;;;10374299;28;20389;-65
2022/12/05 06:46:01;;;;;;;;;;;;;;;;;;10374313;28;20398;-65
2022/12/05 06:51:03;;;;;;;;;;;;;;;;;;10389321;28;19926;-65
2022/12/05 06:56:14;;;;;;;;;;;;;;;;;;10396758;28;19925;-65
2022/12/05 07:06:37;;;;;;;;;;;;;;;;;;10423070;28;19957;-65
2022/12/05 07:11:39;;;;;;;;;;;;;;;;;;10423136;28;19933;-65
2022/12/05 07:16:41;;;;;;;;;;;;;;;;;;10422215;28;19925;-65
2022/12/05 07:21:44;;;;;;;;;;;;;;;;;;10392171;28;19929;-65
2022/12/05 07:26:46;;;;;;;;;;;;;;;;;;10381081;28;20431;-65
2022/12/05 07:31:48;;;;;;;;;;;;;;;;;;10380831;28;19926;-65
2022/12/05 07:36:50;;;;;;;;;;;;;;;;;;10382308;28;20297;-65
2022/12/05 07:41:52;;;;;;;;;;;;;;;;;;10380986;28;19925;-65
2022/12/05 07:46:54;;;;;;;;;;;;;;;;;;10380853;28;19925;-65
2022/12/05 07:51:56;;;;;;;;;;;;;;;;;;10380844;28;19988;-65
2022/12/05 07:56:58;;;;;;;;;;;;;;;;;;10379914;28;19941;-64
2022/12/05 08:02:00;;;;;;;;;;;;;;;;;;10381303;28;19930;-65
2022/12/05 08:07:02;;;;;;;;;;;;;;;;;;10417571;28;19931;-65
2022/12/05 08:12:04;;;;;;;;;;;;;;;;;;10417625;28;19925;-65
2022/12/05 08:17:06;;;;;;;;;;;;;;;;;;10420683;28;19925;-65
2022/12/05 08:22:08;;;;;;;;;;;;;;;;;;10415099;28;19925;-65
2022/12/05 08:27:10;;;;;;;;;;;;;;;;;;10408960;28;19929;-65
2022/12/05 08:32:12;;;;;;;;;;;;;;;;;;10376747;28;20450;-65
2022/12/05 08:37:14;;;;;;;;;;;;;;;;;;10383556;28;20457;-65
2022/12/05 08:42:16;;;;;;;;;;;;;;;;;;10419453;28;19932;-65
2022/12/05 08:47:18;;;;;;;;;;;;;;;;;;10418842;28;20375;-65
2022/12/05 08:52:21;;;;;;;;;;;;;;;;;;10418493;28;19933;-65
2022/12/05 08:57:23;;;;;;;;;;;;;;;;;;10418385;28;19925;-65
2022/12/05 09:02:25;;;;;;;;;;;;;;;;;;10418790;28;19925;-65
2022/12/05 09:07:28;;;;;;;;;;;;;;;;;;10418026;28;20380;-65
2022/12/05 09:12:30;;;;;;;;;;;;;;;;;;10417842;28;20024;-65
2022/12/05 09:17:32;;;;;;;;;;;;;;;;;;10417576;28;20435;-65
2022/12/05 09:22:34;;;;;;;;;;;;;;;;;;10414293;28;19925;-65
2022/12/05 09:27:36;;;;;;;;;;;;;;;;;;10417213;28;19925;-65
2022/12/05 09:32:38;;;;;;;;;;;;;;;;;;10417087;28;20380;-65
2022/12/05 09:37:40;;;;;;;;;;;;;;;;;;10401053;28;19930;-65
2022/12/05 09:42:42;;;;;;;;;;;;;;;;;;10390132;28;19926;-65
2022/12/05 09:47:44;;;;;;;;;;;;;;;;;;10374854;28;19925;-65
2022/12/05 09:52:46;;;;;;;;;;;;;;;;;;10410393;28;19995;-65
2022/12/05 09:57:48;;;;;;;;;;;;;;;;;;10416098;28;19971;-65
2022/12/05 10:02:50;;;;;;;;;;;;;;;;;;10415924;28;19936;-65
2022/12/05 10:07:52;;;;;;;;;;;;;;;;;;10415912;28;19979;-65
2022/12/05 10:12:55;;;;;;;;;;;;;;;;;;10415640;28;19968;-65
2022/12/05 10:17:57;;;;;;;;;;;;;;;;;;10415628;28;19979;-65
2022/12/05 10:22:59;;;;;;;;;;;;;;;;;;10415358;28;19964;-65
2022/12/05 10:28:01;;;;;;;;;;;;;;;;;;10415409;28;19936;-65
2022/12/05 10:33:04;;;;;;;;;;;;;;;;;;10414622;28;20273;-65
2022/12/05 10:38:10;;;;;;;;;;;;;;;;;;10422843;28;20335;-65
2022/12/05 10:43:12;;;;;;;;;;;;;;;;;;10422776;28;19932;-65
2022/12/05 10:48:14;;;;;;;;;;;;;;;;;;10422955;28;19932;-65
2022/12/05 10:53:16;;;;;;;;;;;;;;;;;;10422485;28;20331;-65
2022/12/05 10:58:22;;;;;;;;;;;;;;;;;;10422965;28;19925;-65
2022/12/05 11:03:24;;;;;;;;;;;;;;;;;;10474781;22;19924;-67
2022/12/05 11:08:27;;;;;;;;;;;;;;;;;;10588933;28;20271;-68
2022/12/05 11:13:49;;;;;;;;;;;;;;;;;;10573952;28;20010;-68
2022/12/05 11:18:52;;;;;;;;;;;;;;;;;;10588579;28;19927;-68
2022/12/05 11:23:54;;;;;;;;;;;;;;;;;;10589248;28;19924;-68
2022/12/05 11:28:56;;;;;;;;;;;;;;;;;;10589465;28;19931;-68
2022/12/05 11:33:58;;;;;;;;;;;;;;;;;;10588756;28;20431;-68
2022/12/05 11:39:03;;;;;;;;;;;;;;;;;;10588754;28;20370;-68
2022/12/05 11:44:05;;;;;;;;;;;;;;;;;;10588132;28;20281;-67
2022/12/05 11:49:07;;;;;;;;;;;;;;;;;;10588528;28;19923;-67
2022/12/05 11:54:09;;;;;;;;;;;;;;;;;;10569751;28;20328;-67
2022/12/05 11:59:11;;;;;;;;;;;;;;;;;;10586183;28;19969;-67
2022/12/05 12:04:13;;;;;;;;;;;;;;;;;;10587380;28;19927;-68
2022/12/05 12:09:15;;;;;;;;;;;;;;;;;;10586678;28;20320;-68
2022/12/05 12:14:17;;;;;;;;;;;;;;;;;;10587155;28;19936;-68
2022/12/05 12:19:19;;;;;;;;;;;;;;;;;;10586439;28;19927;-67
2022/12/05 12:24:21;;;;;;;;;;;;;;;;;;10587169;28;20032;-67
2022/12/05 12:29:23;;;;;;;;;;;;;;;;;;10586369;28;20431;-68
2022/12/05 12:34:25;;;;;;;;;;;;;;;;;;10586598;28;19923;-68
2022/12/05 12:39:27;;;;;;;;;;;;;;;;;;10585974;28;19930;-68
2022/12/05 12:44:29;;;;;;;;;;;;;;;;;;10585709;28;19977;-68
2022/12/05 12:49:31;;;;;;;;;;;;;;;;;;10586190;28;19928;-68
2022/12/05 12:54:33;;;;;;;;;;;;;;;;;;10585964;28;19927;-68
2022/12/05 12:59:55;;;;;;;;;;;;;;;;;;10585239;28;20022;-68
2022/12/05 13:04:58;;;;;;;;;;;;;;;;;;10585051;28;19923;-68
2022/12/05 13:10:00;;;;;;;;;;;;;;;;;;10566795;28;20384;-68
2022/12/05 13:15:02;;;;;;;;;;;;;;;;;;10585183;28;19931;-68
2022/12/05 13:20:04;;;;;;;;;;;;;;;;;;10584942;28;19927;-68
2022/12/05 13:25:06;;;;;;;;;;;;;;;;;;10584810;28;19924;-68
2022/12/05 13:30:08;;;;;;;;;;;;;;;;;;10584189;28;19931;-68
2022/12/05 13:35:14;;;;;;;;;;;;;;;;;;10583729;28;20359;-68
2022/12/05 13:45:37;;;;;;;;;;;;;;;;;;10583349;28;19924;-68
2022/12/05 13:50:40;;;;;;;;;;;;;;;;;;10583186;28;19931;-68
2022/12/05 13:55:42;;;;;;;;;;;;;;;;;;10582994;28;20321;-68
2022/12/05 14:00:44;;;;;;;;;;;;;;;;;;10583420;28;19927;-68
2022/12/05 14:05:47;;;;;;;;;;;;;;;;;;10582730;28;19923;-68
2022/12/05 14:10:49;;;;;;;;;;;;;;;;;;10582311;28;19923;-68
2022/12/05 14:15:51;;;;;;;;;;;;;;;;;;10582425;28;20068;-68
2022/12/05 14:20:53;;;;;;;;;;;;;;;;;;10582868;28;19923;-68
2022/12/05 14:25:55;;;;;;;;;;;;;;;;;;10582791;28;19931;-68
2022/12/05 14:31:00;;;;;;;;;;;;;;;;;;10582722;28;19924;-68
2022/12/05 14:36:02;;;;;;;;;;;;;;;;;;10582634;28;19932;-68
2022/12/05 14:41:04;;;;;;;;;;;;;;;;;;10581875;28;19924;-68
2022/12/05 14:46:07;;;;;;;;;;;;;;;;;;10582470;28;19977;-68
2022/12/05 14:51:09;;;;;;;;;;;;;;;;;;10581756;28;19924;-68
2022/12/05 14:56:12;;;;;;;;;;;;;;;;;;10582320;28;19928;-68
2022/12/05 15:01:14;;;;;;;;;;;;;;;;;;10582106;28;19924;-68
2022/12/05 15:06:16;;;;;;;;;;;;;;;;;;10579194;28;20445;-68
2022/12/05 15:11:27;;;;;;;;;;;;;;;;;;10581344;28;19928;-68
2022/12/05 15:16:29;;;;;;;;;;;;;;;;;;10580793;28;20040;-67
2022/12/05 15:21:32;;;;;;;;;;;;;;;;;;10566341;28;20429;-67
2022/12/05 15:26:34;;;;;;;;;;;;;;;;;;10588943;28;19923;-67
2022/12/05 15:31:51;;;;;;;;;;;;;;;;;;10571091;28;19924;-67
2022/12/05 15:36:53;;;;;;;;;;;;;;;;;;10581698;28;19977;-68
2022/12/05 15:41:55;;;;;;;;;;;;;;;;;;10582576;28;19924;-68
2022/12/05 15:46:57;;;;;;;;;;;;;;;;;;10581369;28;19923;-68
2022/12/05 15:51:59;;;;;;;;;;;;;;;;;;10580660;28;20389;-68
2022/12/05 15:57:01;;;;;;;;;;;;;;;;;;10580736;28;19967;-68
2022/12/05 16:02:03;;;;;;;;;;;;;;;;;;10578341;28;20409;-67
2022/12/05 16:07:05;;;;;;;;;;;;;;;;;;10586911;28;19984;-68
2022/12/05 16:12:08;;;;;;;;;;;;;;;;;;10577443;28;19928;-68
2022/12/05 16:17:10;;;;;;;;;;;;;;;;;;10585738;28;19923;-68
2022/12/05 16:22:13;;;;;;;;;;;;;;;;;;10586644;28;19928;-68
2022/12/05 16:27:15;;;;;;;;;;;;;;;;;;10572266;28;20371;-68
2022/12/05 16:32:17;;;;;;;;;;;;;;;;;;10586034;28;19927;-68
2022/12/05 16:37:19;;;;;;;;;;;;;;;;;;10585837;28;20000;-68
2022/12/05 16:42:22;;;;;;;;;;;;;;;;;;10585349;28;19989;-68
2022/12/05 16:47:24;;;;;;;;;;;;;;;;;;10585957;28;19924;-68
2022/12/05 16:52:26;;;;;;;;;;;;;;;;;;10586127;28;19924;-68
2022/12/05 16:57:28;;;;;;;;;;;;;;;;;;10585924;28;19923;-68
2022/12/05 17:02:30;;;;;;;;;;;;;;;;;;10584874;28;19924;-67
2022/12/05 17:07:32;;;;;;;;;;;;;;;;;;10584129;28;19928;-67
2022/12/05 17:12:35;;;;;;;;;;;;;;;;;;10583509;28;19955;-67
2022/12/05 17:17:37;;;;;;;;;;;;;;;;;;10584898;28;19930;-67
2022/12/05 17:22:39;;;;;;;;;;;;;;;;;;10584895;28;19931;-68
2022/12/05 17:27:41;;;;;;;;;;;;;;;;;;10583682;28;19973;-68
2022/12/05 17:32:43;;;;;;;;;;;;;;;;;;10583898;28;19954;-68
2022/12/05 17:37:45;;;;;;;;;;;;;;;;;;10584149;28;19961;-67
2022/12/05 17:42:48;;;;;;;;;;;;;;;;;;10582462;28;19928;-67
2022/12/05 17:47:50;;;;;;;;;;;;;;;;;;10583339;28;19928;-67
2022/12/05 17:52:52;;;;;;;;;;;;;;;;;;10583779;28;19927;-67
2022/12/05 17:57:54;;;;;;;;;;;;;;;;;;10583574;28;19977;-67
2022/12/05 18:02:56;;;;;;;;;;;;;;;;;;10582676;28;19924;-67
2022/12/05 18:07:58;;;;;;;;;;;;;;;;;;10583371;28;20002;-67
2022/12/05 18:13:00;;;;;;;;;;;;;;;;;;10582361;28;19977;-68
2022/12/05 18:18:02;;;;;;;;;;;;;;;;;;10582741;28;19932;-67
2022/12/05 18:23:04;;;;;;;;;;;;;;;;;;10582213;28;20329;-68
2022/12/05 18:28:06;;;;;;;;;;;;;;;;;;10582682;28;19927;-68
2022/12/05 18:33:09;;;;;;;;;;;;;;;;;;10582738;28;19969;-68
2022/12/05 18:38:11;;;;;;;;;;;;;;;;;;10564664;28;19924;-67
2022/12/05 18:43:13;;;;;;;;;;;;;;;;;;10580321;28;19927;-67
2022/12/05 18:48:15;;;;;;;;;;;;;;;;;;10581577;28;19924;-68
2022/12/05 18:53:37;;;;;;;;;;;;;;;;;;10581992;28;20014;-67
2022/12/05 18:58:39;;;;;;;;;;;;;;;;;;10588872;28;20435;-68
2022/12/05 19:03:41;;;;;;;;;;;;;;;;;;10590138;28;19924;-67
2022/12/05 19:08:43;;;;;;;;;;;;;;;;;;10589423;28;19931;-67
2022/12/05 19:13:46;;;;;;;;;;;;;;;;;;10590133;28;19930;-67
2022/12/05 19:18:48;;;;;;;;;;;;;;;;;;10590030;28;19969;-67
2022/12/05 19:23:50;;;;;;;;;;;;;;;;;;10589256;28;19959;-67
2022/12/05 19:28:52;;;;;;;;;;;;;;;;;;10588694;28;20312;-67
2022/12/05 19:33:54;;;;;;;;;;;;;;;;;;10589356;28;19977;-67
2022/12/05 19:38:56;;;;;;;;;;;;;;;;;;10589186;28;19924;-67
2022/12/05 19:43:58;;;;;;;;;;;;;;;;;;10588281;28;19931;-67
2022/12/05 19:49:02;;;;;;;;;;;;;;;;;;10587967;28;19928;-67
2022/12/05 19:54:04;;;;;;;;;;;;;;;;;;10587899;28;19949;-67
2022/12/05 19:59:06;;;;;;;;;;;;;;;;;;10588364;28;19969;-67
2022/12/05 20:04:08;;;;;;;;;;;;;;;;;;10587347;28;19923;-67
2022/12/05 20:09:10;;;;;;;;;;;;;;;;;;10586539;28;19924;-67
2022/12/05 20:14:12;;;;;;;;;;;;;;;;;;10586852;28;20332;-67
2022/12/05 20:19:14;;;;;;;;;;;;;;;;;;10581647;28;20299;-67
2022/12/05 20:24:16;;;;;;;;;;;;;;;;;;10585194;28;20423;-67
2022/12/05 20:29:18;;;;;;;;;;;;;;;;;;10585502;28;19931;-67
2022/12/05 20:34:20;;;;;;;;;;;;;;;;;;10585533;28;19931;-67
2022/12/05 20:39:23;;;;;;;;;;;;;;;;;;10585875;28;20340;-67
2022/12/05 20:44:25;;;;;;;;;;;;;;;;;;10586341;28;19963;-67
2022/12/05 20:49:27;;;;;;;;;;;;;;;;;;10585674;28;19958;-67
2022/12/05 20:54:29;;;;;;;;;;;;;;;;;;10585322;28;19924;-67
2022/12/05 20:59:31;;;;;;;;;;;;;;;;;;10583747;28;20341;-67
2022/12/05 21:04:37;;;;;;;;;;;;;;;;;;10585161;28;19927;-67
2022/12/05 21:09:41;;;;;;;;;;;;;;;;;;10584638;28;20300;-67
2022/12/05 21:14:43;;;;;;;;;;;;;;;;;;10585312;28;19928;-67
2022/12/05 21:19:45;;;;;;;;;;;;;;;;;;10583689;28;20370;-68
2022/12/05 21:24:47;;;;;;;;;;;;;;;;;;10584817;28;19931;-67
2022/12/05 21:29:49;;;;;;;;;;;;;;;;;;10584454;28;19954;-67
2022/12/05 21:34:51;;;;;;;;;;;;;;;;;;10583322;28;19924;-67
2022/12/05 21:39:53;;;;;;;;;;;;;;;;;;10581344;28;19981;-67
2022/12/05 21:44:55;;;;;;;;;;;;;;;;;;10584012;28;19945;-67
2022/12/05 21:49:58;;;;;;;;;;;;;;;;;;10583027;28;20000;-67
2022/12/05 21:55:00;;;;;;;;;;;;;;;;;;10583791;28;19973;-67
2022/12/05 22:00:02;;;;;;;;;;;;;;;;;;10583652;28;19923;-67
2022/12/05 22:05:04;;;;;;;;;;;;;;;;;;10581612;28;19945;-67
2022/12/05 22:10:06;;;;;;;;;;;;;;;;;;10582572;28;20271;-68
2022/12/05 22:15:08;;;;;;;;;;;;;;;;;;10565137;28;19924;-67
2022/12/05 22:20:10;;;;;;;;;;;;;;;;;;10582201;28;19930;-68
2022/12/05 22:25:13;;;;;;;;;;;;;;;;;;10582226;28;20263;-67
2022/12/05 22:30:15;;;;;;;;;;;;;;;;;;10581330;28;20313;-67
2022/12/05 22:35:18;;;;;;;;;;;;;;;;;;10581829;28;19924;-67
2022/12/05 22:40:20;;;;;;;;;;;;;;;;;;10582594;28;19923;-67
2022/12/05 22:45:22;;;;;;;;;;;;;;;;;;10581755;28;20436;-67
2022/12/05 22:50:24;;;;;;;;;;;;;;;;;;10581413;28;19973;-67
2022/12/05 22:55:26;;;;;;;;;;;;;;;;;;10581685;28;19923;-68
2022/12/05 23:00:28;;;;;;;;;;;;;;;;;;10582267;28;19969;-67
2022/12/05 23:05:30;;;;;;;;;;;;;;;;;;10581042;28;19923;-67
2022/12/05 23:10:32;;;;;;;;;;;;;;;;;;10581173;28;20382;-67
2022/12/05 23:15:34;;;;;;;;;;;;;;;;;;10581875;28;19928;-67
2022/12/05 23:20:36;;;;;;;;;;;;;;;;;;10504886;22;19932;-69
2022/12/05 23:25:38;;;;;;;;;;;;;;;;;;10456314;28;19925;-69
2022/12/05 23:30:40;;;;;;;;;;;;;;;;;;10455449;28;19928;-69
2022/12/05 23:35:42;;;;;;;;;;;;;;;;;;10438569;28;20050;-69
2022/12/05 23:40:44;;;;;;;;;;;;;;;;;;10456434;28;19951;-69
2022/12/05 23:45:47;;;;;;;;;;;;;;;;;;10462784;28;19928;-69
2022/12/05 23:50:49;;;;;;;;;;;;;;;;;;10462297;28;20273;-69
2022/12/05 23:55:51;;;;;;;;;;;;;;;;;;10463043;28;19982;-69
